sensor_id;sensor_type;location;lat;lon;timestamp;pressure;altitude;pressure_sealevel;temperature;humidity
78064;BME280;67429;51.596;-3.264;2023-04-15T00:01:52;99063.21;;;2.11;63.81
78064;BME280;67429;51.596;-3.264;2023-04-15T00:04:19;99063.94;;;2.29;63.29
78064;BME280;67429;51.596;-3.264;2023-04-15T00:06:49;99065.98;;;2.86;62.56
78064;BME280;67429;51.596;-3.264;2023-04-15T00:09:10;99068.53;;;2.88;61.93
78064;BME280;67429;51.596;-3.264;2023-04-15T00:11:35;99067.67;;;2.53;62.54
78064;BME280;67429;51.596;-3.264;2023-04-15T00:14:01;99070.35;;;2.78;62.63
78064;BME280;67429;51.596;-3.264;2023-04-15T00:16:27;99073.96;;;2.43;63.05
78064;BME280;67429;51.596;-3.264;2023-04-15T00:18:53;99076.91;;;2.51;62.01
78064;BME280;67429;51.596;-3.264;2023-04-15T00:21:20;99075.45;;;2.76;61.11
78064;BME280;67429;51.596;-3.264;2023-04-15T00:23:46;99082.11;;;2.52;62.53
78064;BME280;67429;51.596;-3.264;2023-04-15T00:26:10;99081.39;;;2.95;61.09
78064;BME280;67429;51.596;-3.264;2023-04-15T00:28:36;99086.50;;;3.02;60.38
78064;BME280;67429;51.596;-3.264;2023-04-15T00:31:02;99086.72;;;3.23;60.24
78064;BME280;67429;51.596;-3.264;2023-04-15T00:33:28;99092.19;;;2.96;60.41
78064;BME280;67429;51.596;-3.264;2023-04-15T00:35:53;99094.66;;;3.04;60.74
78064;BME280;67429;51.596;-3.264;2023-04-15T00:38:20;99102.26;;;2.92;61.31
78064;BME280;67429;51.596;-3.264;2023-04-15T00:40:46;99105.17;;;2.48;60.75
78064;BME280;67429;51.596;-3.264;2023-04-15T00:43:11;99110.69;;;3.21;60.83
78064;BME280;67429;51.596;-3.264;2023-04-15T00:45:37;99115.50;;;2.68;62.89
78064;BME280;67429;51.596;-3.264;2023-04-15T00:48:03;99120.74;;;2.46;63.09
78064;BME280;67429;51.596;-3.264;2023-04-15T00:50:28;99122.76;;;2.76;61.18
78064;BME280;67429;51.596;-3.264;2023-04-15T00:52:54;99123.44;;;2.62;61.74
78064;BME280;67429;51.596;-3.264;2023-04-15T00:55:20;99127.54;;;2.69;61.92
78064;BME280;67429;51.596;-3.264;2023-04-15T00:57:47;99134.03;;;2.86;61.91
78064;BME280;67429;51.596;-3.264;2023-04-15T01:00:12;99135.78;;;2.66;62.00
78064;BME280;67429;51.596;-3.264;2023-04-15T01:02:37;99138.19;;;2.96;61.77
78064;BME280;67429;51.596;-3.264;2023-04-15T01:05:07;99144.58;;;2.26;64.44
78064;BME280;67429;51.596;-3.264;2023-04-15T01:07:29;99151.22;;;2.37;64.79
78064;BME280;67429;51.596;-3.264;2023-04-15T01:09:55;99154.87;;;2.33;64.71
78064;BME280;67429;51.596;-3.264;2023-04-15T01:12:21;99150.18;;;2.47;63.46
78064;BME280;67429;51.596;-3.264;2023-04-15T01:14:46;99157.23;;;2.45;64.11
78064;BME280;67429;51.596;-3.264;2023-04-15T01:17:12;99163.08;;;2.79;64.68
78064;BME280;67429;51.596;-3.264;2023-04-15T01:19:38;99168.33;;;2.99;64.56
78064;BME280;67429;51.596;-3.264;2023-04-15T01:22:04;99171.77;;;3.20;62.71
78064;BME280;67429;51.596;-3.264;2023-04-15T01:24:31;99175.28;;;3.21;62.38
78064;BME280;67429;51.596;-3.264;2023-04-15T01:26:55;99177.00;;;3.12;62.80
78064;BME280;67429;51.596;-3.264;2023-04-15T01:29:21;99174.73;;;3.07;61.68
78064;BME280;67429;51.596;-3.264;2023-04-15T01:31:50;99177.88;;;3.22;61.16
78064;BME280;67429;51.596;-3.264;2023-04-15T01:34:12;99183.75;;;3.58;61.18
78064;BME280;67429;51.596;-3.264;2023-04-15T01:36:38;99187.35;;;3.47;61.61
78064;BME280;67429;51.596;-3.264;2023-04-15T01:39:04;99192.62;;;3.71;60.89
78064;BME280;67429;51.596;-3.264;2023-04-15T01:41:30;99191.23;;;3.83;58.36
78064;BME280;67429;51.596;-3.264;2023-04-15T01:43:56;99191.85;;;3.91;58.23
78064;BME280;67429;51.596;-3.264;2023-04-15T01:46:22;99196.83;;;3.15;58.70
78064;BME280;67429;51.596;-3.264;2023-04-15T01:48:47;99196.71;;;2.87;60.30
78064;BME280;67429;51.596;-3.264;2023-04-15T01:51:13;99191.89;;;3.23;61.91
78064;BME280;67429;51.596;-3.264;2023-04-15T01:53:40;99192.38;;;3.37;60.47
78064;BME280;67429;51.596;-3.264;2023-04-15T01:56:05;99189.30;;;3.80;59.51
78064;BME280;67429;51.596;-3.264;2023-04-15T01:58:30;99193.31;;;3.30;59.90
78064;BME280;67429;51.596;-3.264;2023-04-15T02:00:56;99195.72;;;3.00;60.76
78064;BME280;67429;51.596;-3.264;2023-04-15T02:03:23;99202.24;;;2.76;61.48
78064;BME280;67429;51.596;-3.264;2023-04-15T02:05:48;99204.99;;;2.47;62.03
78064;BME280;67429;51.596;-3.264;2023-04-15T02:08:14;99204.67;;;2.97;61.90
78064;BME280;67429;51.596;-3.264;2023-04-15T02:10:39;99208.78;;;2.76;62.18
78064;BME280;67429;51.596;-3.264;2023-04-15T02:13:05;99202.24;;;3.16;61.23
78064;BME280;67429;51.596;-3.264;2023-04-15T02:15:31;99209.39;;;2.96;61.59
78064;BME280;67429;51.596;-3.264;2023-04-15T02:17:57;99211.73;;;2.90;62.49
78064;BME280;67429;51.596;-3.264;2023-04-15T02:20:23;99214.89;;;2.16;63.88
78064;BME280;67429;51.596;-3.264;2023-04-15T02:22:48;99215.41;;;1.99;63.20
78064;BME280;67429;51.596;-3.264;2023-04-15T02:25:14;99215.95;;;3.14;62.30
78064;BME280;67429;51.596;-3.264;2023-04-15T02:27:40;99217.62;;;2.57;63.54
78064;BME280;67429;51.596;-3.264;2023-04-15T02:30:06;99220.79;;;2.44;64.77
78064;BME280;67429;51.596;-3.264;2023-04-15T02:32:32;99228.62;;;2.94;63.47
78064;BME280;67429;51.596;-3.264;2023-04-15T02:35:02;99227.31;;;2.39;63.41
78064;BME280;67429;51.596;-3.264;2023-04-15T02:37:23;99227.08;;;2.10;63.91
78064;BME280;67429;51.596;-3.264;2023-04-15T02:39:49;99232.77;;;2.26;62.51
78064;BME280;67429;51.596;-3.264;2023-04-15T02:42:15;99234.88;;;2.88;61.93
78064;BME280;67429;51.596;-3.264;2023-04-15T02:44:41;99238.08;;;2.82;62.06
78064;BME280;67429;51.596;-3.264;2023-04-15T02:47:06;99238.44;;;2.92;61.55
78064;BME280;67429;51.596;-3.264;2023-04-15T02:49:32;99235.78;;;2.67;62.73
78064;BME280;67429;51.596;-3.264;2023-04-15T02:51:58;99236.96;;;2.14;64.18
78064;BME280;67429;51.596;-3.264;2023-04-15T02:54:24;99242.32;;;1.91;64.87
78064;BME280;67429;51.596;-3.264;2023-04-15T02:56:50;99243.31;;;2.03;64.94
78064;BME280;67429;51.596;-3.264;2023-04-15T02:59:16;99246.67;;;2.52;64.92
78064;BME280;67429;51.596;-3.264;2023-04-15T03:01:41;99247.07;;;2.16;64.80
78064;BME280;67429;51.596;-3.264;2023-04-15T03:04:07;99257.03;;;2.36;64.42
78064;BME280;67429;51.596;-3.264;2023-04-15T03:06:33;99255.50;;;2.62;62.98
78064;BME280;67429;51.596;-3.264;2023-04-15T03:08:59;99257.56;;;2.42;62.80
78064;BME280;67429;51.596;-3.264;2023-04-15T03:11:24;99260.25;;;2.91;61.46
78064;BME280;67429;51.596;-3.264;2023-04-15T03:13:50;99264.01;;;2.42;61.49
78064;BME280;67429;51.596;-3.264;2023-04-15T03:16:17;99271.96;;;3.26;59.97
78064;BME280;67429;51.596;-3.264;2023-04-15T03:18:41;99275.04;;;3.66;60.02
78064;BME280;67429;51.596;-3.264;2023-04-15T03:21:06;99277.62;;;3.61;60.13
78064;BME280;67429;51.596;-3.264;2023-04-15T03:23:32;99286.10;;;3.53;60.62
78064;BME280;67429;51.596;-3.264;2023-04-15T03:26:01;99283.55;;;3.55;59.80
78064;BME280;67429;51.596;-3.264;2023-04-15T03:28:24;99286.47;;;2.77;60.99
78064;BME280;67429;51.596;-3.264;2023-04-15T03:30:50;99289.81;;;2.57;61.70
78064;BME280;67429;51.596;-3.264;2023-04-15T03:33:16;99292.13;;;2.24;63.83
78064;BME280;67429;51.596;-3.264;2023-04-15T03:35:41;99295.46;;;2.45;64.13
78064;BME280;67429;51.596;-3.264;2023-04-15T03:38:07;99302.58;;;3.31;61.41
78064;BME280;67429;51.596;-3.264;2023-04-15T03:40:33;99303.34;;;3.38;60.38
78064;BME280;67429;51.596;-3.264;2023-04-15T03:42:59;99305.43;;;3.28;61.59
78064;BME280;67429;51.596;-3.264;2023-04-15T03:45:24;99316.20;;;2.98;61.04
78064;BME280;67429;51.596;-3.264;2023-04-15T03:47:52;99318.35;;;3.52;59.68
78064;BME280;67429;51.596;-3.264;2023-04-15T03:50:17;99320.55;;;4.08;57.91
78064;BME280;67429;51.596;-3.264;2023-04-15T03:52:44;99325.35;;;4.25;57.38
78064;BME280;67429;51.596;-3.264;2023-04-15T03:55:08;99329.96;;;4.03;57.83
78064;BME280;67429;51.596;-3.264;2023-04-15T03:57:34;99330.62;;;3.88;58.51
78064;BME280;67429;51.596;-3.264;2023-04-15T03:59:59;99326.49;;;2.88;60.80
78064;BME280;67429;51.596;-3.264;2023-04-15T04:02:25;99327.57;;;2.61;62.22
78064;BME280;67429;51.596;-3.264;2023-04-15T04:04:51;99327.63;;;3.11;60.36
78064;BME280;67429;51.596;-3.264;2023-04-15T04:07:18;99331.00;;;3.61;58.82
78064;BME280;67429;51.596;-3.264;2023-04-15T04:09:43;99330.88;;;3.71;58.65
78064;BME280;67429;51.596;-3.264;2023-04-15T04:12:08;99339.76;;;3.63;59.12
78064;BME280;67429;51.596;-3.264;2023-04-15T04:14:34;99342.45;;;3.72;59.69
78064;BME280;67429;51.596;-3.264;2023-04-15T04:17:00;99345.04;;;3.33;59.87
78064;BME280;67429;51.596;-3.264;2023-04-15T04:19:26;99351.27;;;3.62;59.57
78064;BME280;67429;51.596;-3.264;2023-04-15T04:21:52;99353.20;;;3.50;59.12
78064;BME280;67429;51.596;-3.264;2023-04-15T04:24:18;99355.66;;;3.88;59.33
78064;BME280;67429;51.596;-3.264;2023-04-15T04:26:44;99363.26;;;3.77;59.31
78064;BME280;67429;51.596;-3.264;2023-04-15T04:29:09;99367.62;;;3.87;58.25
78064;BME280;67429;51.596;-3.264;2023-04-15T04:31:35;99366.72;;;4.21;57.32
78064;BME280;67429;51.596;-3.264;2023-04-15T04:34:00;99364.69;;;3.85;59.34
78064;BME280;67429;51.596;-3.264;2023-04-15T04:36:26;99370.30;;;3.37;59.57
78064;BME280;67429;51.596;-3.264;2023-04-15T04:38:52;99375.25;;;3.59;59.04
78064;BME280;67429;51.596;-3.264;2023-04-15T04:41:19;99380.40;;;3.60;59.74
78064;BME280;67429;51.596;-3.264;2023-04-15T04:43:44;99380.28;;;4.11;58.22
78064;BME280;67429;51.596;-3.264;2023-04-15T04:46:09;99385.28;;;3.26;60.91
78064;BME280;67429;51.596;-3.264;2023-04-15T04:48:35;99391.09;;;3.33;60.66
78064;BME280;67429;51.596;-3.264;2023-04-15T04:51:01;99394.67;;;3.15;59.94
78064;BME280;67429;51.596;-3.264;2023-04-15T04:53:27;99396.36;;;3.64;59.07
78064;BME280;67429;51.596;-3.264;2023-04-15T04:55:53;99399.33;;;3.09;61.23
78064;BME280;67429;51.596;-3.264;2023-04-15T04:58:19;99399.80;;;2.69;62.52
78064;BME280;67429;51.596;-3.264;2023-04-15T05:00:46;99406.92;;;3.57;60.20
78064;BME280;67429;51.596;-3.264;2023-04-15T05:03:10;99412.65;;;3.26;61.63
78064;BME280;67429;51.596;-3.264;2023-04-15T05:05:36;99422.02;;;3.22;60.97
78064;BME280;67429;51.596;-3.264;2023-04-15T05:08:02;99429.56;;;2.71;62.38
78064;BME280;67429;51.596;-3.264;2023-04-15T05:10:27;99430.18;;;2.98;61.01
78064;BME280;67429;51.596;-3.264;2023-04-15T05:12:53;99438.21;;;2.49;61.73
78064;BME280;67429;51.596;-3.264;2023-04-15T05:15:20;99437.58;;;2.28;62.65
78064;BME280;67429;51.596;-3.264;2023-04-15T05:17:45;99441.82;;;2.81;62.11
78064;BME280;67429;51.596;-3.264;2023-04-15T05:20:11;99445.07;;;2.56;62.56
78064;BME280;67429;51.596;-3.264;2023-04-15T05:22:36;99446.40;;;2.80;62.70
78064;BME280;67429;51.596;-3.264;2023-04-15T05:25:02;99448.65;;;2.52;63.01
78064;BME280;67429;51.596;-3.264;2023-04-15T05:27:28;99452.57;;;2.68;63.18
78064;BME280;67429;51.596;-3.264;2023-04-15T05:29:53;99457.33;;;2.05;63.64
78064;BME280;67429;51.596;-3.264;2023-04-15T05:32:20;99458.38;;;2.17;63.23
78064;BME280;67429;51.596;-3.264;2023-04-15T05:34:46;99462.75;;;2.44;62.73
78064;BME280;67429;51.596;-3.264;2023-04-15T05:37:11;99464.61;;;2.79;63.16
78064;BME280;67429;51.596;-3.264;2023-04-15T05:39:36;99466.49;;;2.19;63.87
78064;BME280;67429;51.596;-3.264;2023-04-15T05:42:03;99475.21;;;2.49;63.80
78064;BME280;67429;51.596;-3.264;2023-04-15T05:44:28;99481.81;;;2.39;63.54
78064;BME280;67429;51.596;-3.264;2023-04-15T05:46:54;99486.23;;;2.56;63.10
78064;BME280;67429;51.596;-3.264;2023-04-15T05:49:20;99492.65;;;2.52;62.72
78064;BME280;67429;51.596;-3.264;2023-04-15T05:51:47;99500.17;;;2.51;64.09
78064;BME280;67429;51.596;-3.264;2023-04-15T05:54:11;99503.46;;;3.27;62.78
78064;BME280;67429;51.596;-3.264;2023-04-15T05:56:37;99514.01;;;3.42;61.25
78064;BME280;67429;51.596;-3.264;2023-04-15T05:59:03;99516.89;;;3.07;60.36
78064;BME280;67429;51.596;-3.264;2023-04-15T06:01:29;99525.14;;;3.12;60.84
78064;BME280;67429;51.596;-3.264;2023-04-15T06:03:55;99527.29;;;2.87;61.52
78064;BME280;67429;51.596;-3.264;2023-04-15T06:06:21;99524.29;;;3.25;60.85
78064;BME280;67429;51.596;-3.264;2023-04-15T06:08:47;99529.98;;;4.00;58.49
78064;BME280;67429;51.596;-3.264;2023-04-15T06:11:12;99536.41;;;4.00;59.16
78064;BME280;67429;51.596;-3.264;2023-04-15T06:13:38;99537.78;;;4.09;60.17
78064;BME280;67429;51.596;-3.264;2023-04-15T06:16:04;99545.06;;;3.37;61.12
78064;BME280;67429;51.596;-3.264;2023-04-15T06:18:29;99547.60;;;3.63;60.85
78064;BME280;67429;51.596;-3.264;2023-04-15T06:20:56;99549.70;;;2.91;62.18
78064;BME280;67429;51.596;-3.264;2023-04-15T06:23:22;99554.63;;;3.23;61.32
78064;BME280;67429;51.596;-3.264;2023-04-15T06:25:47;99554.07;;;3.97;59.83
78064;BME280;67429;51.596;-3.264;2023-04-15T06:28:13;99563.95;;;4.90;59.98
78064;BME280;67429;51.596;-3.264;2023-04-15T06:30:38;99571.40;;;5.02;59.47
78064;BME280;67429;51.596;-3.264;2023-04-15T06:33:04;99574.07;;;5.45;59.29
78064;BME280;67429;51.596;-3.264;2023-04-15T06:35:30;99578.53;;;5.73;58.08
78064;BME280;67429;51.596;-3.264;2023-04-15T06:37:56;99588.93;;;6.31;57.02
78064;BME280;67429;51.596;-3.264;2023-04-15T06:40:21;99596.06;;;5.53;55.44
78064;BME280;67429;51.596;-3.264;2023-04-15T06:42:48;99606.21;;;5.69;56.13
78064;BME280;67429;51.596;-3.264;2023-04-15T06:45:13;99613.66;;;6.84;54.65
78064;BME280;67429;51.596;-3.264;2023-04-15T06:47:38;99617.59;;;6.59;56.06
78064;BME280;67429;51.596;-3.264;2023-04-15T06:50:05;99624.58;;;6.29;55.62
78064;BME280;67429;51.596;-3.264;2023-04-15T06:52:30;99629.23;;;6.04;56.15
78064;BME280;67429;51.596;-3.264;2023-04-15T06:54:56;99629.74;;;6.44;57.02
78064;BME280;67429;51.596;-3.264;2023-04-15T06:57:22;99633.00;;;5.42;57.68
78064;BME280;67429;51.596;-3.264;2023-04-15T06:59:48;99636.41;;;5.54;57.29
78064;BME280;67429;51.596;-3.264;2023-04-15T07:02:13;99641.10;;;5.99;57.62
78064;BME280;67429;51.596;-3.264;2023-04-15T07:04:39;99635.63;;;5.73;57.61
78064;BME280;67429;51.596;-3.264;2023-04-15T07:07:04;99636.30;;;5.59;58.05
78064;BME280;67429;51.596;-3.264;2023-04-15T07:09:30;99637.88;;;5.97;58.34
78064;BME280;67429;51.596;-3.264;2023-04-15T07:11:56;99644.96;;;5.92;58.14
78064;BME280;67429;51.596;-3.264;2023-04-15T07:14:22;99644.11;;;5.43;58.90
78064;BME280;67429;51.596;-3.264;2023-04-15T07:16:47;99650.27;;;6.31;57.37
78064;BME280;67429;51.596;-3.264;2023-04-15T07:19:13;99655.60;;;6.77;56.15
78064;BME280;67429;51.596;-3.264;2023-04-15T07:21:40;99661.58;;;7.13;56.86
78064;BME280;67429;51.596;-3.264;2023-04-15T07:24:05;99664.70;;;7.48;54.95
78064;BME280;67429;51.596;-3.264;2023-04-15T07:26:30;99669.64;;;7.81;54.21
78064;BME280;67429;51.596;-3.264;2023-04-15T07:28:56;99675.81;;;8.05;52.79
78064;BME280;67429;51.596;-3.264;2023-04-15T07:31:22;99675.66;;;8.19;53.69
78064;BME280;67429;51.596;-3.264;2023-04-15T07:33:48;99680.56;;;8.27;52.34
78064;BME280;67429;51.596;-3.264;2023-04-15T07:36:13;99687.63;;;8.98;52.05
78064;BME280;67429;51.596;-3.264;2023-04-15T07:38:39;99689.00;;;8.92;50.41
78064;BME280;67429;51.596;-3.264;2023-04-15T07:41:04;99693.15;;;7.89;52.86
78064;BME280;67429;51.596;-3.264;2023-04-15T07:43:30;99696.79;;;8.33;53.14
78064;BME280;67429;51.596;-3.264;2023-04-15T07:45:56;99701.04;;;7.62;54.10
78064;BME280;67429;51.596;-3.264;2023-04-15T07:48:22;99700.11;;;7.95;53.70
78064;BME280;67429;51.596;-3.264;2023-04-15T07:50:47;99704.40;;;8.51;52.61
78064;BME280;67429;51.596;-3.264;2023-04-15T07:53:13;99707.35;;;8.47;52.46
78064;BME280;67429;51.596;-3.264;2023-04-15T07:55:38;99711.49;;;8.34;53.38
78064;BME280;67429;51.596;-3.264;2023-04-15T07:58:04;99712.26;;;7.76;53.52
78064;BME280;67429;51.596;-3.264;2023-04-15T08:00:30;99714.55;;;7.38;55.27
78064;BME280;67429;51.596;-3.264;2023-04-15T08:02:56;99719.18;;;7.72;55.83
78064;BME280;67429;51.596;-3.264;2023-04-15T08:05:21;99724.66;;;7.88;54.09
78064;BME280;67429;51.596;-3.264;2023-04-15T08:07:48;99725.12;;;8.41;52.89
78064;BME280;67429;51.596;-3.264;2023-04-15T08:10:13;99727.57;;;9.01;53.56
78064;BME280;67429;51.596;-3.264;2023-04-15T08:12:38;99733.43;;;9.69;50.42
78064;BME280;67429;51.596;-3.264;2023-04-15T08:15:05;99735.41;;;9.16;49.75
78064;BME280;67429;51.596;-3.264;2023-04-15T08:17:30;99741.93;;;9.05;50.40
78064;BME280;67429;51.596;-3.264;2023-04-15T08:19:55;99741.16;;;9.63;49.11
78064;BME280;67429;51.596;-3.264;2023-04-15T08:22:21;99741.91;;;9.77;48.36
78064;BME280;67429;51.596;-3.264;2023-04-15T08:24:47;99743.38;;;10.01;48.69
78064;BME280;67429;51.596;-3.264;2023-04-15T08:27:12;99742.98;;;10.80;46.51
78064;BME280;67429;51.596;-3.264;2023-04-15T08:29:38;99746.75;;;10.95;46.71
78064;BME280;67429;51.596;-3.264;2023-04-15T08:32:04;99749.58;;;9.75;46.50
78064;BME280;67429;51.596;-3.264;2023-04-15T08:34:29;99753.90;;;10.05;48.81
78064;BME280;67429;51.596;-3.264;2023-04-15T08:36:55;99759.09;;;10.14;47.55
78064;BME280;67429;51.596;-3.264;2023-04-15T08:39:21;99767.22;;;10.51;46.09
78064;BME280;67429;51.596;-3.264;2023-04-15T08:41:47;99772.74;;;10.38;46.59
78064;BME280;67429;51.596;-3.264;2023-04-15T08:44:12;99769.78;;;10.12;47.51
78064;BME280;67429;51.596;-3.264;2023-04-15T08:46:37;99773.67;;;10.10;47.21
78064;BME280;67429;51.596;-3.264;2023-04-15T08:49:04;99780.66;;;10.64;46.55
78064;BME280;67429;51.596;-3.264;2023-04-15T08:51:28;99780.40;;;10.28;47.53
78064;BME280;67429;51.596;-3.264;2023-04-15T08:53:54;99781.45;;;11.14;45.43
78064;BME280;67429;51.596;-3.264;2023-04-15T08:56:24;99786.94;;;10.55;45.63
78064;BME280;67429;51.596;-3.264;2023-04-15T08:58:47;99791.27;;;11.01;45.21
78064;BME280;67429;51.596;-3.264;2023-04-15T09:01:11;99793.43;;;11.43;46.38
78064;BME280;67429;51.596;-3.264;2023-04-15T09:03:37;99800.74;;;11.27;46.06
78064;BME280;67429;51.596;-3.264;2023-04-15T09:06:04;99803.82;;;10.58;47.33
78064;BME280;67429;51.596;-3.264;2023-04-15T09:08:28;99811.54;;;10.77;45.12
78064;BME280;67429;51.596;-3.264;2023-04-15T09:10:53;99812.14;;;10.79;44.59
78064;BME280;67429;51.596;-3.264;2023-04-15T09:13:20;99817.57;;;11.44;43.21
78064;BME280;67429;51.596;-3.264;2023-04-15T09:15:46;99820.16;;;12.03;42.63
78064;BME280;67429;51.596;-3.264;2023-04-15T09:18:11;99825.65;;;11.35;42.37
78064;BME280;67429;51.596;-3.264;2023-04-15T09:20:38;99827.43;;;11.58;42.38
78064;BME280;67429;51.596;-3.264;2023-04-15T09:23:11;99832.78;;;12.86;40.59
78064;BME280;67429;51.596;-3.264;2023-04-15T09:25:28;99843.18;;;13.16;38.67
78064;BME280;67429;51.596;-3.264;2023-04-15T09:27:53;99843.97;;;10.24;40.22
78064;BME280;67429;51.596;-3.264;2023-04-15T09:30:19;99846.06;;;9.89;43.93
78064;BME280;67429;51.596;-3.264;2023-04-15T09:32:49;99851.74;;;9.40;44.03
78064;BME280;67429;51.596;-3.264;2023-04-15T09:35:11;99851.92;;;10.06;42.48
78064;BME280;67429;51.596;-3.264;2023-04-15T09:37:35;99850.66;;;10.79;40.59
78064;BME280;67429;51.596;-3.264;2023-04-15T09:40:00;99854.82;;;10.97;39.74
78064;BME280;67429;51.596;-3.264;2023-04-15T09:42:27;99857.89;;;11.11;39.90
78064;BME280;67429;51.596;-3.264;2023-04-15T09:44:51;99859.42;;;12.45;38.87
78064;BME280;67429;51.596;-3.264;2023-04-15T09:47:27;99857.24;;;12.51;37.63
78064;BME280;67429;51.596;-3.264;2023-04-15T09:49:54;99870.51;;;11.62;39.76
78064;BME280;67429;51.596;-3.264;2023-04-15T09:52:08;99873.38;;;9.86;40.57
78064;BME280;67429;51.596;-3.264;2023-04-15T09:54:35;99877.04;;;9.59;42.54
78064;BME280;67429;51.596;-3.264;2023-04-15T09:57:04;99876.13;;;10.91;39.39
78064;BME280;67429;51.596;-3.264;2023-04-15T09:59:25;99879.19;;;12.21;38.17
78064;BME280;67429;51.596;-3.264;2023-04-15T10:01:51;99879.22;;;12.42;36.58
78064;BME280;67429;51.596;-3.264;2023-04-15T10:04:17;99881.29;;;12.64;36.74
78064;BME280;67429;51.596;-3.264;2023-04-15T10:06:42;99883.46;;;11.81;38.78
78064;BME280;67429;51.596;-3.264;2023-04-15T10:09:09;99889.19;;;12.25;37.82
78064;BME280;67429;51.596;-3.264;2023-04-15T10:11:34;99889.05;;;13.24;36.75
78064;BME280;67429;51.596;-3.264;2023-04-15T10:13:58;99886.13;;;13.46;35.42
78064;BME280;67429;51.596;-3.264;2023-04-15T10:16:26;99891.24;;;13.72;34.58
78064;BME280;67429;51.596;-3.264;2023-04-15T10:18:53;99886.86;;;14.33;33.35
78064;BME280;67429;51.596;-3.264;2023-04-15T10:21:21;99893.45;;;14.11;33.71
78064;BME280;67429;51.596;-3.264;2023-04-15T10:23:40;99895.46;;;14.63;32.09
78064;BME280;67429;51.596;-3.264;2023-04-15T10:26:06;99899.86;;;14.04;32.73
78064;BME280;67429;51.596;-3.264;2023-04-15T10:28:31;99898.93;;;14.63;32.43
78064;BME280;67429;51.596;-3.264;2023-04-15T10:30:58;99907.97;;;14.35;32.55
78064;BME280;67429;51.596;-3.264;2023-04-15T10:33:24;99904.76;;;12.81;33.75
78064;BME280;67429;51.596;-3.264;2023-04-15T10:35:49;99904.81;;;12.96;32.71
78064;BME280;67429;51.596;-3.264;2023-04-15T10:38:30;99909.63;;;13.08;33.81
78064;BME280;67429;51.596;-3.264;2023-04-15T10:40:39;99909.77;;;13.45;33.36
78064;BME280;67429;51.596;-3.264;2023-04-15T10:43:04;99913.72;;;14.79;31.33
78064;BME280;67429;51.596;-3.264;2023-04-15T10:45:32;99905.54;;;16.11;30.31
78064;BME280;67429;51.596;-3.264;2023-04-15T10:47:56;99905.23;;;16.39;29.12
78064;BME280;67429;51.596;-3.264;2023-04-15T10:50:22;99905.16;;;15.91;29.44
78064;BME280;67429;51.596;-3.264;2023-04-15T10:52:50;99913.52;;;15.74;29.26
78064;BME280;67429;51.596;-3.264;2023-04-15T10:55:13;99912.67;;;15.19;28.81
78064;BME280;67429;51.596;-3.264;2023-04-15T10:57:39;99911.09;;;16.29;28.74
78064;BME280;67429;51.596;-3.264;2023-04-15T11:00:11;99909.60;;;16.99;27.81
78064;BME280;67429;51.596;-3.264;2023-04-15T11:02:39;99912.55;;;17.45;26.73
78064;BME280;67429;51.596;-3.264;2023-04-15T11:04:55;99912.08;;;15.58;29.64
78064;BME280;67429;51.596;-3.264;2023-04-15T11:07:33;99912.20;;;16.50;28.26
78064;BME280;67429;51.596;-3.264;2023-04-15T11:09:46;99916.79;;;16.77;28.32
78064;BME280;67429;51.596;-3.264;2023-04-15T11:12:10;99915.72;;;16.08;28.98
78064;BME280;67429;51.596;-3.264;2023-04-15T11:14:39;99917.65;;;15.63;28.42
78064;BME280;67429;51.596;-3.264;2023-04-15T11:17:02;99916.86;;;17.18;26.87
78064;BME280;67429;51.596;-3.264;2023-04-15T11:19:35;99922.74;;;17.11;26.77
78064;BME280;67429;51.596;-3.264;2023-04-15T11:21:52;99927.32;;;18.54;24.62
78064;BME280;67429;51.596;-3.264;2023-04-15T11:24:23;99927.24;;;16.66;24.94
78064;BME280;67429;51.596;-3.264;2023-04-15T11:26:44;99931.13;;;17.51;25.41
78064;BME280;67429;51.596;-3.264;2023-04-15T11:29:16;99926.26;;;18.09;25.60
78064;BME280;67429;51.596;-3.264;2023-04-15T11:31:34;99933.10;;;18.05;25.62
78064;BME280;67429;51.596;-3.264;2023-04-15T11:34:01;99941.66;;;18.66;24.32
78064;BME280;67429;51.596;-3.264;2023-04-15T11:36:26;99941.96;;;16.90;25.81
78064;BME280;67429;51.596;-3.264;2023-04-15T11:38:51;99944.23;;;16.90;26.24
78064;BME280;67429;51.596;-3.264;2023-04-15T11:41:20;99939.83;;;16.86;25.73
78064;BME280;67429;51.596;-3.264;2023-04-15T11:43:42;99941.65;;;17.60;24.23
78064;BME280;67429;51.596;-3.264;2023-04-15T11:46:07;99941.96;;;17.14;24.33
78064;BME280;67429;51.596;-3.264;2023-04-15T11:48:33;99943.46;;;17.52;25.94
78064;BME280;67429;51.596;-3.264;2023-04-15T11:50:59;99948.29;;;18.10;25.40
78064;BME280;67429;51.596;-3.264;2023-04-15T11:53:24;99948.41;;;17.75;24.22
78064;BME280;67429;51.596;-3.264;2023-04-15T11:55:51;99956.53;;;19.14;25.83
78064;BME280;67429;51.596;-3.264;2023-04-15T11:58:16;99952.87;;;18.66;25.18
78064;BME280;67429;51.596;-3.264;2023-04-15T12:00:40;99956.80;;;19.34;23.94
78064;BME280;67429;51.596;-3.264;2023-04-15T12:03:13;99959.63;;;19.56;23.85
78064;BME280;67429;51.596;-3.264;2023-04-15T12:05:31;99959.58;;;18.75;24.03
78064;BME280;67429;51.596;-3.264;2023-04-15T12:07:57;99964.30;;;18.76;23.23
78064;BME280;67429;51.596;-3.264;2023-04-15T12:10:23;99961.67;;;16.03;27.02
78064;BME280;67429;51.596;-3.264;2023-04-15T12:12:50;99960.51;;;15.26;28.92
78064;BME280;67429;51.596;-3.264;2023-04-15T12:15:13;99963.25;;;15.00;28.91
78064;BME280;67429;51.596;-3.264;2023-04-15T12:17:39;99963.83;;;16.21;28.42
78064;BME280;67429;51.596;-3.264;2023-04-15T12:20:04;99957.53;;;17.31;27.02
78064;BME280;67429;51.596;-3.264;2023-04-15T12:22:29;99961.08;;;18.76;23.24
78064;BME280;67429;51.596;-3.264;2023-04-15T12:24:54;99960.02;;;16.99;25.29
78064;BME280;67429;51.596;-3.264;2023-04-15T12:27:24;99965.13;;;16.99;24.16
78064;BME280;67429;51.596;-3.264;2023-04-15T12:29:46;99966.26;;;18.88;22.42
78064;BME280;67429;51.596;-3.264;2023-04-15T12:32:12;99967.40;;;19.56;22.76
78064;BME280;67429;51.596;-3.264;2023-04-15T12:34:38;99961.36;;;18.06;23.88
78064;BME280;67429;51.596;-3.264;2023-04-15T12:37:03;99971.17;;;20.00;22.64
78064;BME280;67429;51.596;-3.264;2023-04-15T12:39:29;99968.17;;;19.62;23.11
78064;BME280;67429;51.596;-3.264;2023-04-15T12:41:53;99978.16;;;20.09;22.07
78064;BME280;67429;51.596;-3.264;2023-04-15T12:44:20;99981.87;;;18.89;24.28
78064;BME280;67429;51.596;-3.264;2023-04-15T12:46:45;99990.59;;;20.16;22.61
78064;BME280;67429;51.596;-3.264;2023-04-15T12:49:09;99986.40;;;20.01;21.48